createdAt,value
2023-02-15T00:02:34.180Z,-0.12
2023-02-15T00:07:38.103Z,-0.15
2023-02-15T00:12:43.054Z,-0.14
2023-02-15T00:17:46.919Z,-0.12
2023-02-15T00:22:50.675Z,-0.12
2023-02-15T00:27:54.940Z,-0.11
2023-02-15T00:32:58.696Z,-0.13
2023-02-15T00:38:03.012Z,-0.18
2023-02-15T00:43:07.752Z,-0.24
2023-02-15T00:48:12.895Z,-0.32
2023-02-15T00:53:16.998Z,-0.44
2023-02-15T00:58:20.862Z,-0.53
2023-02-15T01:03:24.698Z,-0.60
2023-02-15T01:08:29.048Z,-0.65
2023-02-15T01:13:33.584Z,-0.69
2023-02-15T01:18:37.540Z,-0.72
2023-02-15T01:23:42.813Z,-0.75
2023-02-15T01:28:46.932Z,-0.82
2023-02-15T01:33:50.715Z,-0.89
2023-02-15T01:38:55.495Z,-0.96
2023-02-15T01:44:01.477Z,-1.04
2023-02-15T01:49:20.626Z,-1.11
2023-02-15T01:54:37.262Z,-1.21
2023-02-15T01:59:44.897Z,-1.30
2023-02-15T02:04:50.975Z,-1.35
2023-02-15T02:09:56.164Z,-1.35
2023-02-15T02:15:02.117Z,-1.25
2023-02-15T02:20:48.386Z,-1.20
2023-02-15T02:26:25.646Z,-1.17
2023-02-15T02:32:11.148Z,-1.12
2023-02-15T02:37:40.809Z,-1.14
2023-02-15T02:43:13.127Z,-1.26
2023-02-15T02:48:21.771Z,-1.28
2023-02-15T02:53:27.632Z,-1.27
2023-02-15T02:59:00.036Z,-1.26
2023-02-15T03:04:13.896Z,-1.26
2023-02-15T03:09:25.559Z,-1.26
2023-02-15T03:14:29.783Z,-1.27
2023-02-15T03:19:35.954Z,-1.28
2023-02-15T03:25:18.784Z,-1.31
2023-02-15T03:30:30.152Z,-1.34
2023-02-15T03:35:47.224Z,-1.35
2023-02-15T03:41:10.639Z,-1.38
2023-02-15T03:46:22.841Z,-1.41
2023-02-15T03:51:39.263Z,-1.40
2023-02-15T03:57:04.051Z,-1.41
2023-02-15T04:02:22.551Z,-1.42
2023-02-15T04:07:26.846Z,-1.40
2023-02-15T04:12:30.627Z,-1.40
2023-02-15T04:17:34.613Z,-1.40
2023-02-15T04:22:56.974Z,-1.39
2023-02-15T04:28:01.330Z,-1.36
2023-02-15T04:33:05.288Z,-1.30
2023-02-15T04:38:09.107Z,-1.22
2023-02-15T04:43:12.895Z,-1.10
2023-02-15T04:48:20.558Z,-1.00
2023-02-15T04:53:24.276Z,-0.93
2023-02-15T04:58:29.310Z,-0.90
2023-02-15T05:03:33.450Z,-0.87
2023-02-15T05:08:37.534Z,-0.84
2023-02-15T05:13:41.171Z,-0.80
2023-02-15T05:18:45.272Z,-0.78
2023-02-15T05:23:49.063Z,-0.76
2023-02-15T05:28:52.817Z,-0.78
2023-02-15T05:33:56.629Z,-0.83
2023-02-15T05:39:00.959Z,-0.84
2023-02-15T05:44:04.809Z,-0.87
2023-02-15T05:49:09.275Z,-0.85
2023-02-15T05:54:15.988Z,-0.88
2023-02-15T05:59:20.961Z,-0.91
2023-02-15T06:04:24.848Z,-0.92
2023-02-15T06:09:28.589Z,-0.94
2023-02-15T06:14:35.555Z,-0.93
2023-02-15T06:19:42.279Z,-0.88
2023-02-15T06:24:46.076Z,-0.84
2023-02-15T06:29:49.787Z,-0.81
2023-02-15T06:34:53.665Z,-0.74
2023-02-15T06:40:03.221Z,-0.65
2023-02-15T06:45:10.913Z,-0.55
2023-02-15T06:50:14.619Z,-0.45
2023-02-15T06:55:18.576Z,-0.33
2023-02-15T07:00:24.395Z,-0.20
2023-02-15T07:05:33.064Z,-0.06
2023-02-15T07:10:36.823Z,0.10
2023-02-15T07:15:40.609Z,0.25
2023-02-15T07:20:44.425Z,0.40
2023-02-15T07:25:48.178Z,0.54
2023-02-15T07:30:52.791Z,0.63
2023-02-15T07:36:02.552Z,0.69
2023-02-15T07:41:08.989Z,0.79
2023-02-15T07:46:15.148Z,0.89
2023-02-15T07:51:19.011Z,1.02
2023-02-15T07:56:22.646Z,1.13
2023-02-15T08:01:32.482Z,1.22
2023-02-15T08:06:38.692Z,1.31
2023-02-15T08:11:42.853Z,1.41
2023-02-15T08:16:51.711Z,1.52
2023-02-15T08:22:06.933Z,1.62
2023-02-15T08:27:12.531Z,1.76
2023-02-15T08:32:16.502Z,1.90
2023-02-15T08:37:20.449Z,2.04
2023-02-15T08:42:24.388Z,2.20
2023-02-15T08:47:28.197Z,2.37
2023-02-15T08:52:32.464Z,2.52
2023-02-15T08:57:36.214Z,2.68
2023-02-15T09:02:40.071Z,2.85
2023-02-15T09:07:43.866Z,3.03
2023-02-15T09:12:47.749Z,3.20
2023-02-15T09:17:51.663Z,3.37
2023-02-15T09:22:58.080Z,3.55
2023-02-15T09:28:02.791Z,3.71
2023-02-15T09:33:06.457Z,3.80
2023-02-15T09:38:13.205Z,3.96
2023-02-15T09:43:44.906Z,4.12
2023-02-15T09:48:55.950Z,4.32
2023-02-15T09:54:28.523Z,4.52
2023-02-15T09:59:35.819Z,4.66
2023-02-15T10:04:58.737Z,4.81
2023-02-15T10:10:28.650Z,5.00
2023-02-15T10:15:40.135Z,5.14
2023-02-15T10:21:04.692Z,5.28
2023-02-15T10:26:18.450Z,5.31
2023-02-15T10:31:32.358Z,5.34
2023-02-15T10:36:41.905Z,5.43
2023-02-15T10:42:08.646Z,5.58
2023-02-15T10:47:39.977Z,5.68
2023-02-15T10:53:28.012Z,5.76
2023-02-15T10:59:09.299Z,5.91
2023-02-15T11:04:40.427Z,6.05
2023-02-15T11:09:49.867Z,6.13
2023-02-15T11:14:58.068Z,6.25
2023-02-15T11:20:17.259Z,6.31
2023-02-15T11:25:26.027Z,6.39
2023-02-15T11:30:46.125Z,6.47
2023-02-15T11:36:00.791Z,6.50
2023-02-15T11:41:11.700Z,6.48
2023-02-15T11:46:16.294Z,6.55
2023-02-15T11:51:23.958Z,6.73
2023-02-15T11:56:27.996Z,6.93
2023-02-15T12:01:39.675Z,7.04
2023-02-15T12:06:50.097Z,7.16
2023-02-15T12:11:54.781Z,7.23
2023-02-15T12:16:58.771Z,7.23
2023-02-15T12:22:04.218Z,7.29
2023-02-15T12:27:17.045Z,7.39
2023-02-15T12:32:26.364Z,7.53
2023-02-15T12:37:33.990Z,7.57
2023-02-15T12:42:46.229Z,7.60
2023-02-15T12:48:17.181Z,7.68
2023-02-15T12:53:25.711Z,7.74
2023-02-15T12:58:31.774Z,7.69
2023-02-15T13:03:36.682Z,7.70
2023-02-15T13:08:53.264Z,7.75
2023-02-15T13:13:59.979Z,7.80
2023-02-15T13:19:35.072Z,7.78
2023-02-15T13:24:45.551Z,7.80
2023-02-15T13:30:00.847Z,7.91
2023-02-15T13:35:08.403Z,7.95
2023-02-15T13:40:17.396Z,7.94
2023-02-15T13:45:57.152Z,7.95
2023-02-15T13:51:14.932Z,7.96
2023-02-15T13:56:46.266Z,7.97
2023-02-15T14:02:00.402Z,8.00
2023-02-15T14:07:28.443Z,8.01
2023-02-15T14:13:12.239Z,8.06
2023-02-15T14:18:38.924Z,8.08
2023-02-15T14:24:31.496Z,8.02
2023-02-15T14:29:46.924Z,8.01
2023-02-15T14:34:54.736Z,8.01
2023-02-15T14:40:55.704Z,7.97
2023-02-15T14:46:33.261Z,7.88
2023-02-15T14:52:09.370Z,7.83
2023-02-15T14:57:14.394Z,7.79
2023-02-15T15:03:05.781Z,7.74
2023-02-15T15:08:24.309Z,7.63
2023-02-15T15:20:08.585Z,7.43
2023-02-15T15:25:32.633Z,7.30
2023-02-15T15:30:36.441Z,7.16
2023-02-15T15:35:58.776Z,7.02
2023-02-15T15:41:31.775Z,6.83
2023-02-15T15:47:30.248Z,6.61
2023-02-15T15:52:40.746Z,6.36
2023-02-15T15:57:47.957Z,6.13
2023-02-15T16:02:54.507Z,5.89
2023-02-15T16:07:59.224Z,5.67
2023-02-15T16:13:04.393Z,5.49
2023-02-15T16:18:16.853Z,5.33
2023-02-15T16:23:56.246Z,5.15
2023-02-15T16:29:01.278Z,4.97
2023-02-15T16:34:16.746Z,4.80
2023-02-15T16:39:22.973Z,4.65
2023-02-15T16:44:34.889Z,4.52
2023-02-15T16:49:40.901Z,4.40
2023-02-15T16:54:46.905Z,4.31
2023-02-15T16:59:54.181Z,4.23
2023-02-15T17:05:15.545Z,4.13
2023-02-15T17:10:40.732Z,4.01
2023-02-15T17:16:09.148Z,3.86
2023-02-15T17:21:19.836Z,3.69
2023-02-15T17:26:31.683Z,3.55
2023-02-15T17:31:38.944Z,3.45
2023-02-15T17:37:04.245Z,3.39
2023-02-15T17:42:09.903Z,3.32
2023-02-15T17:47:22.790Z,3.25
2023-02-15T17:52:29.708Z,3.18
2023-02-15T17:57:35.830Z,3.08
2023-02-15T18:03:02.057Z,3.00
2023-02-15T18:08:34.360Z,2.93
2023-02-15T18:13:39.664Z,2.85
2023-02-15T18:18:46.892Z,2.73
2023-02-15T18:23:54.630Z,2.61
2023-02-15T18:29:01.186Z,2.44
2023-02-15T18:34:47.957Z,2.28
2023-02-15T18:39:55.356Z,2.13
2023-02-15T18:45:38.865Z,1.97
2023-02-15T18:50:46.897Z,1.80
2023-02-15T18:55:53.622Z,1.69
2023-02-15T19:01:03.714Z,1.54
2023-02-15T19:06:18.576Z,1.39
2023-02-15T19:11:28.489Z,1.32
2023-02-15T19:16:38.812Z,1.29
2023-02-15T19:21:49.168Z,1.26
2023-02-15T19:26:56.561Z,1.22
2023-02-15T19:32:04.199Z,1.19
2023-02-15T19:37:27.959Z,1.14
2023-02-15T19:42:36.521Z,1.12
2023-02-15T19:47:42.877Z,1.13
2023-02-15T19:52:49.269Z,1.09
2023-02-15T19:57:58.283Z,1.04
2023-02-15T20:03:08.161Z,1.01
2023-02-15T20:08:23.609Z,1.01
2023-02-15T20:13:35.716Z,0.93
2023-02-15T20:18:49.346Z,0.86
2023-02-15T20:23:58.652Z,0.81
2023-02-15T20:29:04.402Z,0.85
2023-02-15T20:34:12.380Z,0.85
2023-02-15T20:39:21.517Z,0.85
2023-02-15T20:44:32.420Z,0.81
2023-02-15T20:49:39.440Z,0.72
2023-02-15T20:54:45.803Z,0.64
2023-02-15T20:59:52.681Z,0.61
2023-02-15T21:04:59.107Z,0.56
2023-02-15T21:10:07.068Z,0.49
2023-02-15T21:15:42.202Z,0.45
2023-02-15T21:20:50.783Z,0.45
2023-02-15T21:26:01.488Z,0.47
2023-02-15T21:31:13.751Z,0.45
2023-02-15T21:36:24.064Z,0.37
2023-02-15T21:41:48.515Z,0.31
2023-02-15T21:47:13.211Z,0.25
2023-02-15T21:52:23.330Z,0.11
2023-02-15T21:57:28.023Z,0.04
2023-02-15T22:02:34.602Z,-0.02
2023-02-15T22:07:39.784Z,-0.13
2023-02-15T22:12:44.260Z,-0.26
2023-02-15T22:17:49.225Z,-0.38
2023-02-15T22:22:54.660Z,-0.46
2023-02-15T22:27:58.349Z,-0.53
2023-02-15T22:33:02.178Z,-0.57
2023-02-15T22:38:06.721Z,-0.61
2023-02-15T22:43:23.079Z,-0.66
2023-02-15T22:48:27.846Z,-0.71
2023-02-15T22:53:31.863Z,-0.78
2023-02-15T22:58:35.818Z,-0.87
2023-02-15T23:03:41.420Z,-0.95
2023-02-15T23:08:47.528Z,-1.04
2023-02-15T23:13:51.705Z,-1.05
2023-02-15T23:18:56.258Z,-1.02
2023-02-15T23:24:15.420Z,-1.08
2023-02-15T23:29:22.052Z,-1.11
2023-02-15T23:34:32.039Z,-1.10
2023-02-15T23:39:54.462Z,-1.07
2023-02-15T23:44:58.851Z,-1.15
2023-02-15T23:50:02.898Z,-1.24
2023-02-15T23:55:06.945Z,-1.33
